sensor_id;sensor_type;location;lat;lon;timestamp;P1;durP1;ratioP1;P2;durP2;ratioP2
9056;SDS011;4563;54.756;9.400;2023-12-29T00:00:26;0.30;;;0.20;;
9056;SDS011;4563;54.756;9.400;2023-12-29T00:02:53;0.53;;;0.30;;
9056;SDS011;4563;54.756;9.400;2023-12-29T00:05:21;0.30;;;0.17;;
9056;SDS011;4563;54.756;9.400;2023-12-29T00:07:47;0.10;;;0.10;;
9056;SDS011;4563;54.756;9.400;2023-12-29T00:10:14;0.00;;;0.00;;
9056;SDS011;4563;54.756;9.400;2023-12-29T00:12:41;0.20;;;0.10;;
9056;SDS011;4563;54.756;9.400;2023-12-29T00:15:08;0.30;;;0.10;;
9056;SDS011;4563;54.756;9.400;2023-12-29T00:17:35;0.20;;;0.20;;
9056;SDS011;4563;54.756;9.400;2023-12-29T00:20:05;0.10;;;0.10;;
9056;SDS011;4563;54.756;9.400;2023-12-29T00:22:34;0.30;;;0.10;;
9056;SDS011;4563;54.756;9.400;2023-12-29T00:25:01;0.00;;;0.00;;
9056;SDS011;4563;54.756;9.400;2023-12-29T00:27:29;0.10;;;0.10;;
9056;SDS011;4563;54.756;9.400;2023-12-29T00:29:56;0.17;;;0.10;;
9056;SDS011;4563;54.756;9.400;2023-12-29T00:32:22;0.27;;;0.20;;
9056;SDS011;4563;54.756;9.400;2023-12-29T00:34:49;0.30;;;0.13;;
9056;SDS011;4563;54.756;9.400;2023-12-29T00:37:16;0.20;;;0.20;;
9056;SDS011;4563;54.756;9.400;2023-12-29T00:39:44;0.80;;;0.20;;
9056;SDS011;4563;54.756;9.400;2023-12-29T00:42:11;0.57;;;0.20;;
9056;SDS011;4563;54.756;9.400;2023-12-29T00:44:38;0.77;;;0.30;;
9056;SDS011;4563;54.756;9.400;2023-12-29T00:47:04;0.20;;;0.20;;
9056;SDS011;4563;54.756;9.400;2023-12-29T00:49:32;0.90;;;0.50;;
9056;SDS011;4563;54.756;9.400;2023-12-29T00:51:59;0.80;;;0.33;;
9056;SDS011;4563;54.756;9.400;2023-12-29T00:54:27;0.50;;;0.40;;
9056;SDS011;4563;54.756;9.400;2023-12-29T00:56:56;0.43;;;0.30;;
9056;SDS011;4563;54.756;9.400;2023-12-29T00:59:22;0.63;;;0.30;;
9056;SDS011;4563;54.756;9.400;2023-12-29T01:01:49;0.43;;;0.40;;
9056;SDS011;4563;54.756;9.400;2023-12-29T01:04:16;1.07;;;0.37;;
9056;SDS011;4563;54.756;9.400;2023-12-29T01:06:43;0.80;;;0.50;;
9056;SDS011;4563;54.756;9.400;2023-12-29T01:09:09;1.43;;;0.40;;
9056;SDS011;4563;54.756;9.400;2023-12-29T01:11:37;0.37;;;0.30;;
9056;SDS011;4563;54.756;9.400;2023-12-29T01:14:05;0.40;;;0.30;;
9056;SDS011;4563;54.756;9.400;2023-12-29T01:16:32;0.70;;;0.40;;
9056;SDS011;4563;54.756;9.400;2023-12-29T01:18:58;0.73;;;0.33;;
9056;SDS011;4563;54.756;9.400;2023-12-29T01:21:25;0.50;;;0.30;;
9056;SDS011;4563;54.756;9.400;2023-12-29T01:23:52;0.73;;;0.30;;
9056;SDS011;4563;54.756;9.400;2023-12-29T01:26:19;0.60;;;0.40;;
9056;SDS011;4563;54.756;9.400;2023-12-29T01:28:46;0.70;;;0.30;;
9056;SDS011;4563;54.756;9.400;2023-12-29T01:31:14;1.70;;;0.40;;
9056;SDS011;4563;54.756;9.400;2023-12-29T01:33:41;1.17;;;0.47;;
9056;SDS011;4563;54.756;9.400;2023-12-29T01:36:07;0.70;;;0.30;;
9056;SDS011;4563;54.756;9.400;2023-12-29T01:38:34;0.93;;;0.50;;
9056;SDS011;4563;54.756;9.400;2023-12-29T01:41:01;0.67;;;0.30;;
9056;SDS011;4563;54.756;9.400;2023-12-29T01:43:29;2.07;;;0.47;;
9056;SDS011;4563;54.756;9.400;2023-12-29T01:45:55;0.50;;;0.30;;
9056;SDS011;4563;54.756;9.400;2023-12-29T01:48:24;0.40;;;0.30;;
9056;SDS011;4563;54.756;9.400;2023-12-29T01:50:52;1.27;;;0.40;;
9056;SDS011;4563;54.756;9.400;2023-12-29T01:53:19;0.30;;;0.30;;
9056;SDS011;4563;54.756;9.400;2023-12-29T01:55:46;0.80;;;0.50;;
9056;SDS011;4563;54.756;9.400;2023-12-29T01:58:14;1.17;;;0.57;;
9056;SDS011;4563;54.756;9.400;2023-12-29T02:00:41;1.33;;;0.93;;
9056;SDS011;4563;54.756;9.400;2023-12-29T02:03:09;0.63;;;0.40;;
9056;SDS011;4563;54.756;9.400;2023-12-29T02:05:37;1.07;;;0.40;;
9056;SDS011;4563;54.756;9.400;2023-12-29T02:08:05;0.97;;;0.40;;
9056;SDS011;4563;54.756;9.400;2023-12-29T02:10:35;0.97;;;0.67;;
9056;SDS011;4563;54.756;9.400;2023-12-29T02:13:02;1.90;;;0.70;;
9056;SDS011;4563;54.756;9.400;2023-12-29T02:15:29;1.30;;;0.50;;
9056;SDS011;4563;54.756;9.400;2023-12-29T02:17:57;1.17;;;0.63;;
9056;SDS011;4563;54.756;9.400;2023-12-29T02:20:27;1.90;;;0.80;;
9056;SDS011;4563;54.756;9.400;2023-12-29T02:22:56;1.27;;;0.57;;
9056;SDS011;4563;54.756;9.400;2023-12-29T02:25:24;1.40;;;0.60;;
9056;SDS011;4563;54.756;9.400;2023-12-29T02:27:55;2.87;;;0.90;;
9056;SDS011;4563;54.756;9.400;2023-12-29T02:30:29;1.67;;;0.67;;
9056;SDS011;4563;54.756;9.400;2023-12-29T02:33:04;2.07;;;0.80;;
9056;SDS011;4563;54.756;9.400;2023-12-29T02:35:35;1.00;;;0.63;;
9056;SDS011;4563;54.756;9.400;2023-12-29T02:38:07;1.60;;;0.57;;
9056;SDS011;4563;54.756;9.400;2023-12-29T02:40:35;2.00;;;0.70;;
9056;SDS011;4563;54.756;9.400;2023-12-29T02:43:03;2.83;;;0.80;;
9056;SDS011;4563;54.756;9.400;2023-12-29T02:45:30;2.00;;;0.90;;
9056;SDS011;4563;54.756;9.400;2023-12-29T02:47:55;2.57;;;0.80;;
9056;SDS011;4563;54.756;9.400;2023-12-29T02:50:22;1.83;;;0.70;;
9056;SDS011;4563;54.756;9.400;2023-12-29T02:52:49;2.67;;;0.93;;
9056;SDS011;4563;54.756;9.400;2023-12-29T02:55:16;1.07;;;0.70;;
9056;SDS011;4563;54.756;9.400;2023-12-29T02:57:44;2.00;;;0.50;;
9056;SDS011;4563;54.756;9.400;2023-12-29T03:00:11;1.30;;;0.73;;
9056;SDS011;4563;54.756;9.400;2023-12-29T03:02:38;2.80;;;0.80;;
9056;SDS011;4563;54.756;9.400;2023-12-29T03:05:05;2.70;;;0.80;;
9056;SDS011;4563;54.756;9.400;2023-12-29T03:07:33;1.00;;;0.70;;
9056;SDS011;4563;54.756;9.400;2023-12-29T03:09:59;2.27;;;1.00;;
9056;SDS011;4563;54.756;9.400;2023-12-29T03:12:27;1.77;;;0.60;;
9056;SDS011;4563;54.756;9.400;2023-12-29T03:14:55;2.00;;;0.80;;
9056;SDS011;4563;54.756;9.400;2023-12-29T03:17:22;1.40;;;0.70;;
9056;SDS011;4563;54.756;9.400;2023-12-29T03:19:49;1.47;;;0.73;;
9056;SDS011;4563;54.756;9.400;2023-12-29T03:22:16;1.00;;;0.80;;
9056;SDS011;4563;54.756;9.400;2023-12-29T03:24:43;0.93;;;0.67;;
9056;SDS011;4563;54.756;9.400;2023-12-29T03:27:10;2.53;;;0.80;;
9056;SDS011;4563;54.756;9.400;2023-12-29T03:29:36;2.53;;;0.80;;
9056;SDS011;4563;54.756;9.400;2023-12-29T03:32:05;1.87;;;0.60;;
9056;SDS011;4563;54.756;9.400;2023-12-29T03:34:32;1.27;;;0.63;;
9056;SDS011;4563;54.756;9.400;2023-12-29T03:36:59;1.37;;;0.83;;
9056;SDS011;4563;54.756;9.400;2023-12-29T03:39:26;1.03;;;0.60;;
9056;SDS011;4563;54.756;9.400;2023-12-29T03:41:53;1.10;;;0.50;;
9056;SDS011;4563;54.756;9.400;2023-12-29T03:44:20;2.13;;;0.70;;
9056;SDS011;4563;54.756;9.400;2023-12-29T03:46:46;1.13;;;0.50;;
9056;SDS011;4563;54.756;9.400;2023-12-29T03:49:16;2.47;;;0.57;;
9056;SDS011;4563;54.756;9.400;2023-12-29T03:51:42;1.40;;;0.90;;
9056;SDS011;4563;54.756;9.400;2023-12-29T03:54:09;2.00;;;0.90;;
9056;SDS011;4563;54.756;9.400;2023-12-29T03:56:36;1.67;;;0.70;;
9056;SDS011;4563;54.756;9.400;2023-12-29T03:59:03;2.00;;;0.80;;
9056;SDS011;4563;54.756;9.400;2023-12-29T04:01:33;1.03;;;0.50;;
9056;SDS011;4563;54.756;9.400;2023-12-29T04:03:59;2.07;;;0.80;;
9056;SDS011;4563;54.756;9.400;2023-12-29T04:06:28;1.47;;;0.63;;
9056;SDS011;4563;54.756;9.400;2023-12-29T04:08:55;3.97;;;1.03;;
9056;SDS011;4563;54.756;9.400;2023-12-29T04:11:21;1.37;;;0.60;;
9056;SDS011;4563;54.756;9.400;2023-12-29T04:13:48;1.00;;;0.60;;
9056;SDS011;4563;54.756;9.400;2023-12-29T04:16:15;1.53;;;0.70;;
9056;SDS011;4563;54.756;9.400;2023-12-29T04:18:43;1.27;;;0.50;;
9056;SDS011;4563;54.756;9.400;2023-12-29T04:21:12;1.53;;;0.67;;
9056;SDS011;4563;54.756;9.400;2023-12-29T04:23:41;1.80;;;0.80;;
9056;SDS011;4563;54.756;9.400;2023-12-29T04:26:08;2.10;;;0.70;;
9056;SDS011;4563;54.756;9.400;2023-12-29T04:28:34;1.93;;;0.57;;
9056;SDS011;4563;54.756;9.400;2023-12-29T04:31:02;1.83;;;0.90;;
9056;SDS011;4563;54.756;9.400;2023-12-29T04:33:29;3.10;;;0.93;;
9056;SDS011;4563;54.756;9.400;2023-12-29T04:35:55;1.90;;;0.70;;
9056;SDS011;4563;54.756;9.400;2023-12-29T04:38:22;2.70;;;0.87;;
9056;SDS011;4563;54.756;9.400;2023-12-29T04:40:50;1.73;;;0.83;;
9056;SDS011;4563;54.756;9.400;2023-12-29T04:43:17;1.63;;;0.80;;
9056;SDS011;4563;54.756;9.400;2023-12-29T04:45:44;4.57;;;1.00;;
9056;SDS011;4563;54.756;9.400;2023-12-29T04:48:11;1.63;;;0.70;;
9056;SDS011;4563;54.756;9.400;2023-12-29T04:50:38;3.03;;;1.10;;
9056;SDS011;4563;54.756;9.400;2023-12-29T04:53:05;3.07;;;1.00;;
9056;SDS011;4563;54.756;9.400;2023-12-29T04:55:31;1.70;;;0.93;;
9056;SDS011;4563;54.756;9.400;2023-12-29T04:57:59;2.57;;;0.90;;
9056;SDS011;4563;54.756;9.400;2023-12-29T05:00:26;1.60;;;1.00;;
9056;SDS011;4563;54.756;9.400;2023-12-29T05:02:53;1.50;;;0.60;;
9056;SDS011;4563;54.756;9.400;2023-12-29T05:05:20;1.50;;;0.80;;
9056;SDS011;4563;54.756;9.400;2023-12-29T05:07:46;1.40;;;0.67;;
9056;SDS011;4563;54.756;9.400;2023-12-29T05:10:16;1.37;;;0.70;;
9056;SDS011;4563;54.756;9.400;2023-12-29T05:12:42;1.57;;;0.70;;
9056;SDS011;4563;54.756;9.400;2023-12-29T05:15:10;1.73;;;0.70;;
9056;SDS011;4563;54.756;9.400;2023-12-29T05:17:37;1.67;;;0.80;;
9056;SDS011;4563;54.756;9.400;2023-12-29T05:20:06;1.73;;;1.03;;
9056;SDS011;4563;54.756;9.400;2023-12-29T05:22:33;2.03;;;0.80;;
9056;SDS011;4563;54.756;9.400;2023-12-29T05:25:00;2.67;;;0.90;;
9056;SDS011;4563;54.756;9.400;2023-12-29T05:27:28;2.27;;;0.87;;
9056;SDS011;4563;54.756;9.400;2023-12-29T05:29:54;1.73;;;0.83;;
9056;SDS011;4563;54.756;9.400;2023-12-29T05:32:23;1.03;;;0.80;;
9056;SDS011;4563;54.756;9.400;2023-12-29T05:34:49;2.40;;;0.87;;
9056;SDS011;4563;54.756;9.400;2023-12-29T05:37:16;2.93;;;1.00;;
9056;SDS011;4563;54.756;9.400;2023-12-29T05:39:43;2.60;;;0.93;;
9056;SDS011;4563;54.756;9.400;2023-12-29T05:42:10;1.77;;;0.60;;
9056;SDS011;4563;54.756;9.400;2023-12-29T05:44:37;2.47;;;1.00;;
9056;SDS011;4563;54.756;9.400;2023-12-29T05:47:04;3.43;;;0.80;;
9056;SDS011;4563;54.756;9.400;2023-12-29T05:49:32;2.87;;;0.90;;
9056;SDS011;4563;54.756;9.400;2023-12-29T05:52:04;1.83;;;0.80;;
9056;SDS011;4563;54.756;9.400;2023-12-29T05:54:31;1.43;;;0.80;;
9056;SDS011;4563;54.756;9.400;2023-12-29T05:56:58;1.57;;;0.93;;
9056;SDS011;4563;54.756;9.400;2023-12-29T05:59:25;1.83;;;0.70;;
9056;SDS011;4563;54.756;9.400;2023-12-29T06:01:52;1.77;;;0.90;;
9056;SDS011;4563;54.756;9.400;2023-12-29T06:04:19;1.30;;;0.80;;
9056;SDS011;4563;54.756;9.400;2023-12-29T06:06:47;1.90;;;0.80;;
9056;SDS011;4563;54.756;9.400;2023-12-29T06:09:14;3.40;;;1.00;;
9056;SDS011;4563;54.756;9.400;2023-12-29T06:11:41;2.00;;;0.90;;
9056;SDS011;4563;54.756;9.400;2023-12-29T06:14:08;1.63;;;0.70;;
9056;SDS011;4563;54.756;9.400;2023-12-29T06:16:35;1.63;;;0.70;;
9056;SDS011;4563;54.756;9.400;2023-12-29T06:19:02;1.43;;;0.83;;
9056;SDS011;4563;54.756;9.400;2023-12-29T06:21:29;3.30;;;1.23;;
9056;SDS011;4563;54.756;9.400;2023-12-29T06:23:57;3.20;;;1.10;;
9056;SDS011;4563;54.756;9.400;2023-12-29T06:26:27;2.00;;;0.90;;
9056;SDS011;4563;54.756;9.400;2023-12-29T06:28:54;1.00;;;0.53;;
9056;SDS011;4563;54.756;9.400;2023-12-29T06:31:22;2.33;;;0.90;;
9056;SDS011;4563;54.756;9.400;2023-12-29T06:33:49;2.27;;;0.77;;
9056;SDS011;4563;54.756;9.400;2023-12-29T06:36:17;3.53;;;1.00;;
9056;SDS011;4563;54.756;9.400;2023-12-29T06:38:46;2.87;;;0.70;;
9056;SDS011;4563;54.756;9.400;2023-12-29T06:41:18;1.80;;;0.53;;
9056;SDS011;4563;54.756;9.400;2023-12-29T06:43:46;2.13;;;0.70;;
9056;SDS011;4563;54.756;9.400;2023-12-29T06:46:12;2.27;;;0.80;;
9056;SDS011;4563;54.756;9.400;2023-12-29T06:48:40;1.20;;;0.80;;
9056;SDS011;4563;54.756;9.400;2023-12-29T06:51:15;2.53;;;1.20;;
9056;SDS011;4563;54.756;9.400;2023-12-29T06:53:45;1.33;;;0.77;;
9056;SDS011;4563;54.756;9.400;2023-12-29T06:56:13;1.57;;;1.03;;
9056;SDS011;4563;54.756;9.400;2023-12-29T06:58:42;1.87;;;0.70;;
9056;SDS011;4563;54.756;9.400;2023-12-29T07:01:09;1.93;;;1.00;;
9056;SDS011;4563;54.756;9.400;2023-12-29T07:03:38;1.50;;;0.80;;
9056;SDS011;4563;54.756;9.400;2023-12-29T07:06:05;0.87;;;0.63;;
9056;SDS011;4563;54.756;9.400;2023-12-29T07:08:33;1.30;;;0.73;;
9056;SDS011;4563;54.756;9.400;2023-12-29T07:11:00;1.43;;;0.87;;
9056;SDS011;4563;54.756;9.400;2023-12-29T07:13:26;1.83;;;0.80;;
9056;SDS011;4563;54.756;9.400;2023-12-29T07:15:55;1.80;;;0.80;;
9056;SDS011;4563;54.756;9.400;2023-12-29T07:18:22;1.13;;;0.83;;
9056;SDS011;4563;54.756;9.400;2023-12-29T07:20:49;0.60;;;0.60;;
9056;SDS011;4563;54.756;9.400;2023-12-29T07:23:16;1.80;;;0.73;;
9056;SDS011;4563;54.756;9.400;2023-12-29T07:25:43;1.63;;;0.80;;
9056;SDS011;4563;54.756;9.400;2023-12-29T07:28:10;2.33;;;0.97;;
9056;SDS011;4563;54.756;9.400;2023-12-29T07:30:37;1.70;;;1.00;;
9056;SDS011;4563;54.756;9.400;2023-12-29T07:33:05;1.43;;;0.80;;
9056;SDS011;4563;54.756;9.400;2023-12-29T07:35:32;2.43;;;1.23;;
9056;SDS011;4563;54.756;9.400;2023-12-29T07:37:59;2.93;;;1.10;;
9056;SDS011;4563;54.756;9.400;2023-12-29T07:40:26;3.20;;;1.10;;
9056;SDS011;4563;54.756;9.400;2023-12-29T07:42:53;2.27;;;0.90;;
9056;SDS011;4563;54.756;9.400;2023-12-29T07:45:20;2.43;;;1.27;;
9056;SDS011;4563;54.756;9.400;2023-12-29T07:47:47;2.73;;;1.07;;
9056;SDS011;4563;54.756;9.400;2023-12-29T07:50:15;3.13;;;1.67;;
9056;SDS011;4563;54.756;9.400;2023-12-29T07:52:42;1.97;;;0.90;;
9056;SDS011;4563;54.756;9.400;2023-12-29T07:55:10;2.50;;;1.10;;
9056;SDS011;4563;54.756;9.400;2023-12-29T07:57:37;0.90;;;0.70;;
9056;SDS011;4563;54.756;9.400;2023-12-29T08:00:04;3.50;;;1.13;;
9056;SDS011;4563;54.756;9.400;2023-12-29T08:02:32;2.00;;;0.97;;
9056;SDS011;4563;54.756;9.400;2023-12-29T08:04:58;1.63;;;0.83;;
9056;SDS011;4563;54.756;9.400;2023-12-29T08:07:27;1.40;;;0.73;;
9056;SDS011;4563;54.756;9.400;2023-12-29T08:09:53;3.47;;;1.50;;
9056;SDS011;4563;54.756;9.400;2023-12-29T08:12:20;2.93;;;1.10;;
9056;SDS011;4563;54.756;9.400;2023-12-29T08:14:47;2.67;;;1.20;;
9056;SDS011;4563;54.756;9.400;2023-12-29T08:17:14;2.40;;;1.10;;
9056;SDS011;4563;54.756;9.400;2023-12-29T08:19:41;2.30;;;1.00;;
9056;SDS011;4563;54.756;9.400;2023-12-29T08:22:07;1.60;;;1.00;;
9056;SDS011;4563;54.756;9.400;2023-12-29T08:24:36;2.97;;;0.93;;
9056;SDS011;4563;54.756;9.400;2023-12-29T08:27:06;2.03;;;1.00;;
9056;SDS011;4563;54.756;9.400;2023-12-29T08:29:32;2.70;;;1.00;;
9056;SDS011;4563;54.756;9.400;2023-12-29T08:31:59;2.90;;;0.93;;
9056;SDS011;4563;54.756;9.400;2023-12-29T08:34:26;1.87;;;1.00;;
9056;SDS011;4563;54.756;9.400;2023-12-29T08:36:53;1.53;;;0.87;;
9056;SDS011;4563;54.756;9.400;2023-12-29T08:39:21;1.70;;;0.90;;
9056;SDS011;4563;54.756;9.400;2023-12-29T08:41:49;2.07;;;1.10;;
9056;SDS011;4563;54.756;9.400;2023-12-29T08:44:16;2.20;;;1.20;;
9056;SDS011;4563;54.756;9.400;2023-12-29T08:46:43;1.83;;;1.23;;
9056;SDS011;4563;54.756;9.400;2023-12-29T08:49:10;1.77;;;0.80;;
9056;SDS011;4563;54.756;9.400;2023-12-29T08:51:37;1.67;;;0.93;;
9056;SDS011;4563;54.756;9.400;2023-12-29T08:54:04;1.93;;;0.83;;
9056;SDS011;4563;54.756;9.400;2023-12-29T08:56:32;2.63;;;1.13;;
9056;SDS011;4563;54.756;9.400;2023-12-29T08:59:00;2.63;;;0.80;;
9056;SDS011;4563;54.756;9.400;2023-12-29T09:01:26;3.90;;;1.20;;
9056;SDS011;4563;54.756;9.400;2023-12-29T09:03:53;1.97;;;1.10;;
9056;SDS011;4563;54.756;9.400;2023-12-29T09:06:20;1.93;;;0.90;;
9056;SDS011;4563;54.756;9.400;2023-12-29T09:08:47;1.80;;;1.00;;
9056;SDS011;4563;54.756;9.400;2023-12-29T09:11:14;1.70;;;1.00;;
9056;SDS011;4563;54.756;9.400;2023-12-29T09:13:41;1.97;;;0.90;;
9056;SDS011;4563;54.756;9.400;2023-12-29T09:16:09;3.43;;;1.00;;
9056;SDS011;4563;54.756;9.400;2023-12-29T09:18:36;2.20;;;0.90;;
9056;SDS011;4563;54.756;9.400;2023-12-29T09:21:03;2.83;;;0.80;;
9056;SDS011;4563;54.756;9.400;2023-12-29T09:23:30;1.37;;;0.90;;
9056;SDS011;4563;54.756;9.400;2023-12-29T09:25:57;2.57;;;0.80;;
9056;SDS011;4563;54.756;9.400;2023-12-29T09:28:24;1.97;;;0.80;;
9056;SDS011;4563;54.756;9.400;2023-12-29T09:30:51;2.27;;;0.83;;
9056;SDS011;4563;54.756;9.400;2023-12-29T09:33:19;2.40;;;0.90;;
9056;SDS011;4563;54.756;9.400;2023-12-29T09:35:45;2.23;;;0.97;;
9056;SDS011;4563;54.756;9.400;2023-12-29T09:38:12;4.20;;;1.33;;
9056;SDS011;4563;54.756;9.400;2023-12-29T09:40:39;1.73;;;1.03;;
9056;SDS011;4563;54.756;9.400;2023-12-29T09:43:07;3.47;;;1.17;;
9056;SDS011;4563;54.756;9.400;2023-12-29T09:45:36;1.90;;;0.80;;
9056;SDS011;4563;54.756;9.400;2023-12-29T09:48:04;4.13;;;1.20;;
9056;SDS011;4563;54.756;9.400;2023-12-29T09:50:35;2.77;;;0.90;;
9056;SDS011;4563;54.756;9.400;2023-12-29T09:53:02;1.87;;;0.93;;
9056;SDS011;4563;54.756;9.400;2023-12-29T09:55:30;2.33;;;0.83;;
9056;SDS011;4563;54.756;9.400;2023-12-29T09:57:59;1.80;;;1.10;;
9056;SDS011;4563;54.756;9.400;2023-12-29T10:00:26;1.73;;;1.03;;
9056;SDS011;4563;54.756;9.400;2023-12-29T10:02:54;2.53;;;1.00;;
9056;SDS011;4563;54.756;9.400;2023-12-29T10:05:23;1.67;;;0.80;;
9056;SDS011;4563;54.756;9.400;2023-12-29T10:07:51;1.60;;;0.77;;
9056;SDS011;4563;54.756;9.400;2023-12-29T10:10:19;3.37;;;0.83;;
9056;SDS011;4563;54.756;9.400;2023-12-29T10:12:48;1.73;;;0.80;;
9056;SDS011;4563;54.756;9.400;2023-12-29T10:15:17;1.10;;;0.90;;
9056;SDS011;4563;54.756;9.400;2023-12-29T10:17:52;2.80;;;1.20;;
9056;SDS011;4563;54.756;9.400;2023-12-29T10:20:31;2.37;;;1.07;;
9056;SDS011;4563;54.756;9.400;2023-12-29T10:23:16;3.07;;;1.20;;
9056;SDS011;4563;54.756;9.400;2023-12-29T10:25:45;2.17;;;1.20;;
9056;SDS011;4563;54.756;9.400;2023-12-29T10:28:12;1.23;;;0.70;;
9056;SDS011;4563;54.756;9.400;2023-12-29T10:30:40;1.23;;;0.80;;
9056;SDS011;4563;54.756;9.400;2023-12-29T10:33:06;1.80;;;1.23;;
9056;SDS011;4563;54.756;9.400;2023-12-29T10:35:34;2.67;;;1.30;;
9056;SDS011;4563;54.756;9.400;2023-12-29T10:38:10;3.10;;;1.20;;
9056;SDS011;4563;54.756;9.400;2023-12-29T10:40:38;2.67;;;1.20;;
9056;SDS011;4563;54.756;9.400;2023-12-29T10:43:05;2.30;;;1.17;;
9056;SDS011;4563;54.756;9.400;2023-12-29T10:45:33;2.03;;;0.80;;
9056;SDS011;4563;54.756;9.400;2023-12-29T10:48:01;1.33;;;0.80;;
9056;SDS011;4563;54.756;9.400;2023-12-29T10:50:28;2.20;;;0.77;;
9056;SDS011;4563;54.756;9.400;2023-12-29T10:55:49;1.00;;;0.70;;
9056;SDS011;4563;54.756;9.400;2023-12-29T10:58:16;2.17;;;0.70;;
9056;SDS011;4563;54.756;9.400;2023-12-29T11:00:44;1.73;;;0.83;;
9056;SDS011;4563;54.756;9.400;2023-12-29T11:03:12;3.43;;;1.27;;
9056;SDS011;4563;54.756;9.400;2023-12-29T11:05:41;4.10;;;1.33;;
9056;SDS011;4563;54.756;9.400;2023-12-29T11:08:14;0.90;;;0.57;;
9056;SDS011;4563;54.756;9.400;2023-12-29T11:10:42;1.10;;;0.70;;
9056;SDS011;4563;54.756;9.400;2023-12-29T11:13:11;3.37;;;1.40;;
9056;SDS011;4563;54.756;9.400;2023-12-29T11:15:40;4.50;;;2.17;;
9056;SDS011;4563;54.756;9.400;2023-12-29T11:18:11;1.80;;;1.10;;
9056;SDS011;4563;54.756;9.400;2023-12-29T11:20:39;1.63;;;1.00;;
9056;SDS011;4563;54.756;9.400;2023-12-29T11:23:07;8.03;;;2.50;;
9056;SDS011;4563;54.756;9.400;2023-12-29T11:25:38;1.63;;;0.93;;
9056;SDS011;4563;54.756;9.400;2023-12-29T11:28:06;1.00;;;0.63;;
9056;SDS011;4563;54.756;9.400;2023-12-29T11:30:39;5.30;;;1.67;;
9056;SDS011;4563;54.756;9.400;2023-12-29T11:33:07;1.30;;;0.60;;
9056;SDS011;4563;54.756;9.400;2023-12-29T11:35:39;1.97;;;0.90;;
9056;SDS011;4563;54.756;9.400;2023-12-29T11:38:15;2.53;;;1.10;;
9056;SDS011;4563;54.756;9.400;2023-12-29T11:40:57;2.37;;;0.90;;
9056;SDS011;4563;54.756;9.400;2023-12-29T11:43:31;1.43;;;0.77;;
9056;SDS011;4563;54.756;9.400;2023-12-29T11:46:00;1.70;;;0.80;;
9056;SDS011;4563;54.756;9.400;2023-12-29T11:51:27;0.80;;;0.73;;
9056;SDS011;4563;54.756;9.400;2023-12-29T11:53:54;1.03;;;0.70;;
9056;SDS011;4563;54.756;9.400;2023-12-29T11:56:21;1.17;;;0.63;;
9056;SDS011;4563;54.756;9.400;2023-12-29T11:58:48;2.10;;;0.60;;
9056;SDS011;4563;54.756;9.400;2023-12-29T12:01:26;1.03;;;0.70;;
9056;SDS011;4563;54.756;9.400;2023-12-29T12:04:00;1.67;;;0.67;;
9056;SDS011;4563;54.756;9.400;2023-12-29T12:06:36;1.03;;;0.60;;
9056;SDS011;4563;54.756;9.400;2023-12-29T12:09:16;0.80;;;0.60;;
9056;SDS011;4563;54.756;9.400;2023-12-29T12:11:44;1.53;;;0.70;;
9056;SDS011;4563;54.756;9.400;2023-12-29T12:17:10;0.80;;;0.70;;
9056;SDS011;4563;54.756;9.400;2023-12-29T12:19:37;1.00;;;0.80;;
9056;SDS011;4563;54.756;9.400;2023-12-29T12:22:05;1.57;;;0.80;;
9056;SDS011;4563;54.756;9.400;2023-12-29T12:24:36;1.00;;;0.60;;
9056;SDS011;4563;54.756;9.400;2023-12-29T12:27:03;2.93;;;1.07;;
9056;SDS011;4563;54.756;9.400;2023-12-29T12:29:35;1.03;;;0.63;;
9056;SDS011;4563;54.756;9.400;2023-12-29T12:32:02;1.13;;;0.70;;
9056;SDS011;4563;54.756;9.400;2023-12-29T12:34:37;1.10;;;0.80;;
9056;SDS011;4563;54.756;9.400;2023-12-29T12:37:04;1.40;;;0.60;;
9056;SDS011;4563;54.756;9.400;2023-12-29T12:39:38;0.60;;;0.60;;
9056;SDS011;4563;54.756;9.400;2023-12-29T12:42:06;1.03;;;0.60;;
9056;SDS011;4563;54.756;9.400;2023-12-29T12:44:32;2.30;;;0.80;;
9056;SDS011;4563;54.756;9.400;2023-12-29T12:47:01;2.03;;;0.60;;
9056;SDS011;4563;54.756;9.400;2023-12-29T12:49:34;0.93;;;0.60;;
9056;SDS011;4563;54.756;9.400;2023-12-29T12:52:03;1.60;;;0.80;;
9056;SDS011;4563;54.756;9.400;2023-12-29T12:54:30;0.70;;;0.60;;
9056;SDS011;4563;54.756;9.400;2023-12-29T12:56:57;0.93;;;0.63;;
9056;SDS011;4563;54.756;9.400;2023-12-29T12:59:24;1.67;;;0.93;;
9056;SDS011;4563;54.756;9.400;2023-12-29T13:01:53;1.00;;;0.70;;
9056;SDS011;4563;54.756;9.400;2023-12-29T13:04:20;0.73;;;0.43;;
9056;SDS011;4563;54.756;9.400;2023-12-29T13:06:47;1.13;;;0.57;;
9056;SDS011;4563;54.756;9.400;2023-12-29T13:09:15;1.23;;;0.60;;
9056;SDS011;4563;54.756;9.400;2023-12-29T13:11:44;1.33;;;0.57;;
9056;SDS011;4563;54.756;9.400;2023-12-29T13:14:19;1.40;;;0.63;;
9056;SDS011;4563;54.756;9.400;2023-12-29T13:16:46;1.80;;;0.60;;
9056;SDS011;4563;54.756;9.400;2023-12-29T13:19:16;1.83;;;0.60;;
9056;SDS011;4563;54.756;9.400;2023-12-29T13:21:45;1.63;;;0.70;;
9056;SDS011;4563;54.756;9.400;2023-12-29T13:24:13;2.53;;;0.60;;
9056;SDS011;4563;54.756;9.400;2023-12-29T13:26:44;0.73;;;0.53;;
9056;SDS011;4563;54.756;9.400;2023-12-29T13:29:17;2.07;;;0.83;;
9056;SDS011;4563;54.756;9.400;2023-12-29T13:31:45;1.40;;;0.50;;
9056;SDS011;4563;54.756;9.400;2023-12-29T13:34:12;2.43;;;0.73;;
9056;SDS011;4563;54.756;9.400;2023-12-29T13:36:48;1.23;;;0.57;;
9056;SDS011;4563;54.756;9.400;2023-12-29T13:39:20;0.87;;;0.50;;
9056;SDS011;4563;54.756;9.400;2023-12-29T13:41:54;0.93;;;0.50;;
9056;SDS011;4563;54.756;9.400;2023-12-29T13:44:22;1.60;;;0.80;;
9056;SDS011;4563;54.756;9.400;2023-12-29T13:46:51;0.83;;;0.43;;
9056;SDS011;4563;54.756;9.400;2023-12-29T13:49:19;1.17;;;0.60;;
9056;SDS011;4563;54.756;9.400;2023-12-29T13:51:46;3.53;;;1.20;;
9056;SDS011;4563;54.756;9.400;2023-12-29T13:54:13;0.93;;;0.43;;
9056;SDS011;4563;54.756;9.400;2023-12-29T13:56:50;0.50;;;0.50;;
9056;SDS011;4563;54.756;9.400;2023-12-29T13:59:19;1.80;;;0.87;;
9056;SDS011;4563;54.756;9.400;2023-12-29T14:01:55;1.97;;;0.70;;
9056;SDS011;4563;54.756;9.400;2023-12-29T14:04:24;1.10;;;0.60;;
9056;SDS011;4563;54.756;9.400;2023-12-29T14:06:52;1.00;;;0.63;;
9056;SDS011;4563;54.756;9.400;2023-12-29T14:09:25;0.87;;;0.50;;
9056;SDS011;4563;54.756;9.400;2023-12-29T14:11:51;0.87;;;0.60;;
9056;SDS011;4563;54.756;9.400;2023-12-29T14:14:23;0.47;;;0.47;;
9056;SDS011;4563;54.756;9.400;2023-12-29T14:16:51;1.37;;;0.77;;
9056;SDS011;4563;54.756;9.400;2023-12-29T14:19:18;0.60;;;0.50;;
9056;SDS011;4563;54.756;9.400;2023-12-29T14:21:45;1.30;;;0.73;;
9056;SDS011;4563;54.756;9.400;2023-12-29T14:24:15;1.23;;;0.70;;
9056;SDS011;4563;54.756;9.400;2023-12-29T14:26:43;1.43;;;0.80;;
9056;SDS011;4563;54.756;9.400;2023-12-29T14:29:23;1.83;;;0.80;;
9056;SDS011;4563;54.756;9.400;2023-12-29T14:31:50;2.97;;;0.70;;
9056;SDS011;4563;54.756;9.400;2023-12-29T14:34:17;0.60;;;0.53;;
9056;SDS011;4563;54.756;9.400;2023-12-29T14:36:45;1.80;;;0.70;;
9056;SDS011;4563;54.756;9.400;2023-12-29T14:39:12;1.40;;;0.60;;
9056;SDS011;4563;54.756;9.400;2023-12-29T14:41:40;2.03;;;0.60;;
9056;SDS011;4563;54.756;9.400;2023-12-29T14:44:07;1.27;;;0.63;;
9056;SDS011;4563;54.756;9.400;2023-12-29T14:46:36;1.13;;;0.60;;
9056;SDS011;4563;54.756;9.400;2023-12-29T14:49:03;1.10;;;0.63;;
9056;SDS011;4563;54.756;9.400;2023-12-29T14:51:30;1.00;;;0.73;;
9056;SDS011;4563;54.756;9.400;2023-12-29T14:53:57;2.37;;;0.90;;
9056;SDS011;4563;54.756;9.400;2023-12-29T14:56:24;1.67;;;1.10;;
9056;SDS011;4563;54.756;9.400;2023-12-29T14:58:51;0.50;;;0.50;;
9056;SDS011;4563;54.756;9.400;2023-12-29T15:01:17;2.40;;;0.60;;
9056;SDS011;4563;54.756;9.400;2023-12-29T15:03:46;1.30;;;0.60;;
9056;SDS011;4563;54.756;9.400;2023-12-29T15:06:12;1.17;;;0.70;;
9056;SDS011;4563;54.756;9.400;2023-12-29T15:08:39;0.83;;;0.53;;
9056;SDS011;4563;54.756;9.400;2023-12-29T15:11:06;1.17;;;0.60;;
9056;SDS011;4563;54.756;9.400;2023-12-29T15:13:33;0.93;;;0.43;;
9056;SDS011;4563;54.756;9.400;2023-12-29T15:16:01;0.90;;;0.60;;
9056;SDS011;4563;54.756;9.400;2023-12-29T15:18:29;1.20;;;0.50;;
9056;SDS011;4563;54.756;9.400;2023-12-29T15:20:57;1.53;;;0.67;;
9056;SDS011;4563;54.756;9.400;2023-12-29T15:23:24;1.77;;;0.93;;
9056;SDS011;4563;54.756;9.400;2023-12-29T15:25:53;0.50;;;0.50;;
9056;SDS011;4563;54.756;9.400;2023-12-29T15:28:20;1.67;;;0.60;;